Time;durP1;ratioP1;P1;durP2;ratioP2;P2;SDS_P1;SDS_P2;PMS_P1;PMS_P2;Temp;Humidity;BMP_temperature;BMP_pressure;BME280_temperature;BME280_humidity;BME280_pressure;Samples;Min_cycle;Max_cycle;Signal;HPM_P1;HPM_P2
2023/11/01 00:01:37;;;;;;;7.53;2.80;;;13.30;1.00;;;;;;5078666;28;20720;-83
2023/11/01 00:04:03;;;;;;;9.17;3.27;;;13.30;1.00;;;;;;5073393;28;20196;-84
2023/11/01 00:06:28;;;;;;;6.90;2.70;;;13.30;1.00;;;;;;5060170;28;20273;-83
2023/11/01 00:08:56;;;;;;;8.70;2.70;;;13.30;99.90;;;;;;5075843;28;20185;-83
2023/11/01 00:11:22;;;;;;;6.50;2.30;;;13.30;99.90;;;;;;5077967;28;20189;-84
2023/11/01 00:13:48;;;;;;;4.20;2.60;;;13.40;99.90;;;;;;5078309;28;20435;-83
2023/11/01 00:16:13;;;;;;;6.10;2.30;;;13.30;99.90;;;;;;5078523;28;21168;-83
2023/11/01 00:18:39;;;;;;;14.93;2.37;;;13.30;99.90;;;;;;5077256;28;20693;-83
2023/11/01 00:21:04;;;;;;;5.13;2.13;;;13.30;99.90;;;;;;5072840;28;20264;-83
2023/11/01 00:23:30;;;;;;;11.13;3.10;;;13.40;99.90;;;;;;5071558;28;20202;-82
2023/11/01 00:25:56;;;;;;;8.17;2.30;;;13.30;99.90;;;;;;5072365;28;20186;-83
2023/11/01 00:28:21;;;;;;;5.53;3.03;;;13.30;99.90;;;;;;5059061;28;20238;-83
2023/11/01 00:30:47;;;;;;;6.63;2.10;;;13.30;99.90;;;;;;5078257;28;20435;-83
2023/11/01 00:33:13;;;;;;;7.17;2.30;;;13.30;99.90;;;;;;5075374;28;20279;-83
2023/11/01 00:35:39;;;;;;;9.23;2.80;;;13.30;99.90;;;;;;5055676;28;20904;-83
2023/11/01 00:38:07;;;;;;;7.80;2.03;;;13.30;99.90;;;;;;5067167;28;20447;-83
2023/11/01 00:40:33;;;;;;;4.80;2.07;;;13.30;99.90;;;;;;5077899;28;20266;-83
2023/11/01 00:42:59;;;;;;;4.30;1.83;;;13.30;99.90;;;;;;5078162;28;20463;-83
2023/11/01 00:45:27;;;;;;;5.57;1.87;;;13.20;99.90;;;;;;5080371;28;20549;-83
2023/11/01 00:47:52;;;;;;;4.77;2.13;;;13.20;99.90;;;;;;5081209;28;20639;-84
2023/11/01 00:50:18;;;;;;;3.63;2.10;;;13.20;99.90;;;;;;5081696;28;20435;-83
2023/11/01 00:52:45;;;;;;;3.20;1.43;;;13.20;99.90;;;;;;5082485;28;20205;-83
2023/11/01 00:55:11;;;;;;;5.60;1.97;;;13.20;99.90;;;;;;5081142;28;20504;-83
2023/11/01 00:57:37;;;;;;;3.13;1.83;;;13.20;99.90;;;;;;5076814;28;20451;-83
2023/11/01 01:00:03;;;;;;;6.13;1.87;;;13.20;99.90;;;;;;5080896;28;20189;-83
2023/11/01 01:02:28;;;;;;;4.83;2.00;;;13.10;99.90;;;;;;5083015;28;20303;-84
2023/11/01 01:04:54;;;;;;;4.07;1.87;;;13.20;99.90;;;;;;5079911;28;20446;-83
2023/11/01 01:07:19;;;;;;;4.00;1.60;;;13.20;99.90;;;;;;5080709;28;20206;-82
2023/11/01 01:09:45;;;;;;;6.50;1.57;;;13.20;99.90;;;;;;5081428;28;20245;-83
2023/11/01 01:12:10;;;;;;;9.10;2.03;;;13.20;99.90;;;;;;5079096;28;20654;-84
2023/11/01 01:14:36;;;;;;;4.97;2.00;;;13.10;99.90;;;;;;5078150;28;20189;-83
2023/11/01 01:17:02;;;;;;;7.30;2.57;;;13.10;99.90;;;;;;5079730;28;20197;-83
2023/11/01 01:19:27;;;;;;;6.13;2.60;;;13.10;99.90;;;;;;5062307;28;20254;-83
2023/11/01 01:21:53;;;;;;;2.93;1.73;;;13.10;1.00;;;;;;5081708;28;20219;-83
2023/11/01 01:24:18;;;;;;;8.87;2.13;;;13.10;1.00;;;;;;5081492;28;20197;-83
2023/11/01 01:26:44;;;;;;;6.00;2.13;;;13.10;1.00;;;;;;5082094;28;20270;-84
2023/11/01 01:29:09;;;;;;;5.70;2.40;;;13.00;1.00;;;;;;5062871;28;20242;-83
2023/11/01 01:31:35;;;;;;;7.90;2.33;;;13.00;1.00;;;;;;5077844;28;20242;-83
2023/11/01 01:34:00;;;;;;;7.40;2.33;;;13.00;1.00;;;;;;5080720;28;20718;-83
2023/11/01 01:36:26;;;;;;;7.90;2.30;;;12.90;1.00;;;;;;5078418;28;20760;-83
2023/11/01 01:38:52;;;;;;;4.77;1.73;;;12.90;1.00;;;;;;5081530;28;20227;-83
2023/11/01 01:41:17;;;;;;;4.90;1.90;;;12.90;1.00;;;;;;5081451;28;20466;-83
2023/11/01 01:43:43;;;;;;;5.93;2.23;;;12.90;1.00;;;;;;5080417;28;20439;-84
2023/11/01 01:46:12;;;;;;;3.80;1.93;;;12.80;1.00;;;;;;5079438;28;20200;-83
2023/11/01 01:48:39;;;;;;;4.67;1.90;;;12.80;1.00;;;;;;5079321;28;20235;-83
2023/11/01 01:51:05;;;;;;;8.33;1.87;;;12.80;1.00;;;;;;5080768;28;20431;-83
2023/11/01 01:53:36;;;;;;;6.70;2.27;;;12.70;1.00;;;;;;5082302;28;20492;-83
2023/11/01 01:56:02;;;;;;;4.90;2.00;;;12.70;1.00;;;;;;5080466;28;20431;-83
2023/11/01 01:58:30;;;;;;;3.67;2.00;;;12.70;1.00;;;;;;5080288;28;20427;-84
2023/11/01 02:00:56;;;;;;;3.63;1.63;;;12.70;1.00;;;;;;5079748;28;20466;-83
2023/11/01 02:03:22;;;;;;;5.50;1.50;;;12.70;1.00;;;;;;5077105;28;20429;-83
2023/11/01 02:05:48;;;;;;;3.50;1.60;;;12.70;1.00;;;;;;5077788;28;20447;-83
2023/11/01 02:08:14;;;;;;;4.43;1.77;;;12.70;1.00;;;;;;5081101;28;20822;-83
2023/11/01 02:10:40;;;;;;;6.50;2.07;;;12.80;1.00;;;;;;5082081;28;20197;-82
2023/11/01 02:13:14;;;;;;;3.77;1.70;;;12.80;1.00;;;;;;5085710;28;20427;-83
2023/11/01 02:15:41;;;;;;;3.83;1.40;;;12.80;1.00;;;;;;5058108;28;20523;-82
2023/11/01 02:18:06;;;;;;;6.80;1.70;;;12.80;1.00;;;;;;5077972;28;20458;-83
2023/11/01 02:20:36;;;;;;;8.30;1.70;;;12.80;1.00;;;;;;5079047;28;20439;-83
2023/11/01 02:23:06;;;;;;;3.73;2.03;;;12.80;1.00;;;;;;5057164;28;20750;-83
2023/11/01 02:25:32;;;;;;;2.97;1.33;;;12.80;1.00;;;;;;5078088;28;20460;-83
2023/11/01 02:27:58;;;;;;;4.90;1.63;;;12.80;1.00;;;;;;5077078;28;20526;-83
2023/11/01 02:30:24;;;;;;;4.17;2.13;;;12.70;1.00;;;;;;5079066;28;20256;-83
2023/11/01 02:32:50;;;;;;;4.73;3.90;;;12.70;1.00;;;;;;5080268;28;20431;-83
2023/11/01 02:35:16;;;;;;;7.13;1.80;;;12.60;1.00;;;;;;5076209;28;20436;-83
2023/11/01 02:37:42;;;;;;;30.30;22.90;;;12.60;1.00;;;;;;5077833;28;20471;-84
2023/11/01 02:40:09;;;;;;;8.60;2.07;;;12.60;1.00;;;;;;5078568;28;20447;-84
2023/11/01 02:42:41;;;;;;;7.77;1.80;;;12.60;1.00;;;;;;5057935;28;20213;-83
2023/11/01 02:45:09;;;;;;;10.90;4.00;;;12.60;1.00;;;;;;5076665;28;20979;-84
2023/11/01 02:47:35;;;;;;;19.90;2.90;;;12.60;1.00;;;;;;5077594;28;20559;-83
2023/11/01 02:50:02;;;;;;;38.70;5.30;;;12.60;1.00;;;;;;5077172;28;20534;-84
2023/11/01 02:52:27;;;;;;;15.20;3.77;;;12.50;1.00;;;;;;5078540;28;20451;-83
2023/11/01 02:54:53;;;;;;;25.50;3.60;;;12.50;9.20;;;;;;5055393;28;20444;-83
2023/11/01 02:57:18;;;;;;;9.13;2.57;;;12.40;24.50;;;;;;5075765;28;20239;-84
2023/11/01 02:59:44;;;;;;;8.53;3.27;;;12.30;39.80;;;;;;5056633;28;20189;-83
2023/11/01 03:02:09;;;;;;;17.50;3.00;;;12.20;47.60;;;;;;5073656;28;20728;-84
2023/11/01 03:04:35;;;;;;;23.90;3.20;;;12.20;58.30;;;;;;5073611;28;20241;-83
2023/11/01 03:07:00;;;;;;;17.43;2.43;;;12.20;72.70;;;;;;5073079;28;20217;-83
2023/11/01 03:09:26;;;;;;;17.30;3.07;;;12.10;87.20;;;;;;5073706;28;20264;-83
2023/11/01 03:11:51;;;;;;;29.77;3.70;;;12.10;93.70;;;;;;5071009;28;20197;-83
2023/11/01 03:14:17;;;;;;;13.47;2.50;;;12.10;97.70;;;;;;5073890;28;20193;-82
2023/11/01 03:16:42;;;;;;;11.50;3.30;;;12.10;99.90;;;;;;5072259;28;20808;-82
2023/11/01 03:19:08;;;;;;;23.10;4.90;;;12.10;99.90;;;;;;5072233;28;20260;-83
2023/11/01 03:21:33;;;;;;;10.13;3.13;;;12.10;99.90;;;;;;5070068;28;20197;-82
2023/11/01 03:23:59;;;;;;;11.00;2.90;;;12.10;99.90;;;;;;5072259;28;20201;-82
2023/11/01 03:26:24;;;;;;;11.20;2.70;;;12.10;99.90;;;;;;5071627;28;20204;-83
2023/11/01 03:28:50;;;;;;;7.73;2.20;;;12.10;99.90;;;;;;5054152;28;20184;-83
2023/11/01 03:31:18;;;;;;;8.10;2.37;;;12.10;99.90;;;;;;5052748;28;20190;-83
2023/11/01 03:33:45;;;;;;;8.70;2.83;;;12.10;99.90;;;;;;5064862;28;20647;-84
2023/11/01 03:36:11;;;;;;;7.93;2.37;;;12.10;99.90;;;;;;5068785;28;20471;-83
2023/11/01 03:38:37;;;;;;;12.13;2.87;;;12.10;99.90;;;;;;5071167;28;20807;-84
2023/11/01 03:41:03;;;;;;;13.27;2.90;;;12.10;99.90;;;;;;5070402;28;20671;-84
2023/11/01 03:43:29;;;;;;;4.60;2.17;;;12.10;99.90;;;;;;5070283;28;20435;-84
2023/11/01 03:45:54;;;;;;;3.80;2.30;;;12.10;99.90;;;;;;5047901;28;20991;-84
2023/11/01 03:48:20;;;;;;;5.17;2.70;;;12.20;99.90;;;;;;5050622;28;20196;-85
2023/11/01 03:50:46;;;;;;;6.67;2.53;;;12.20;99.90;;;;;;5071069;28;20177;-85
2023/11/01 03:53:13;;;;;;;10.30;2.50;;;12.20;99.90;;;;;;5047693;28;20280;-85
2023/11/01 03:55:38;;;;;;;6.33;2.27;;;12.20;99.90;;;;;;5070915;28;20186;-85
2023/11/01 03:58:04;;;;;;;6.93;3.30;;;12.20;99.90;;;;;;5070365;28;20451;-84
2023/11/01 04:00:30;;;;;;;10.60;2.93;;;12.20;99.90;;;;;;5043834;28;20271;-85
2023/11/01 04:02:55;;;;;;;6.50;3.60;;;12.20;99.90;;;;;;5053102;28;20244;-85
2023/11/01 04:05:21;;;;;;;10.63;3.00;;;12.30;99.90;;;;;;5055546;28;20177;-85
2023/11/01 04:07:46;;;;;;;11.00;3.33;;;12.30;99.90;;;;;;5053720;28;20656;-85
2023/11/01 04:10:12;;;;;;;6.80;3.63;;;12.30;99.90;;;;;;5066693;28;20274;-85
2023/11/01 04:12:38;;;;;;;14.50;3.43;;;12.30;99.90;;;;;;5046991;28;20189;-85
2023/11/01 04:15:05;;;;;;;13.13;3.83;;;12.30;99.90;;;;;;5070069;28;20978;-85
2023/11/01 04:17:33;;;;;;;16.63;4.10;;;12.30;99.90;;;;;;5071943;28;20272;-85
2023/11/01 04:19:59;;;;;;;12.50;4.20;;;12.40;99.90;;;;;;5068668;28;20435;-85
2023/11/01 04:22:27;;;;;;;9.23;3.77;;;12.40;99.90;;;;;;5051606;28;20459;-84
2023/11/01 04:24:54;;;;;;;9.23;3.77;;;12.40;99.90;;;;;;5070582;28;20177;-85
2023/11/01 04:27:20;;;;;;;12.10;3.70;;;12.40;99.90;;;;;;5066654;28;20829;-85
2023/11/01 04:30:10;;;;;;;12.97;4.13;;;12.40;99.90;;;;;;5071379;28;20439;-85
2023/11/01 04:32:36;;;;;;;20.83;4.23;;;12.40;99.90;;;;;;5068973;28;20234;-85
2023/11/01 04:35:02;;;;;;;13.93;5.37;;;12.40;99.90;;;;;;5070960;28;20442;-85
2023/11/01 04:37:28;;;;;;;15.63;4.67;;;12.50;99.90;;;;;;5049563;28;20487;-85
2023/11/01 04:39:53;;;;;;;11.60;5.10;;;12.50;99.90;;;;;;5071131;28;20442;-84
2023/11/01 04:42:19;;;;;;;14.80;5.20;;;12.50;99.90;;;;;;5051837;28;20761;-84
2023/11/01 04:44:45;;;;;;;15.83;5.20;;;12.50;99.90;;;;;;5069587;28;20216;-85
2023/11/01 04:47:12;;;;;;;13.77;5.37;;;12.60;99.90;;;;;;5072128;28;20610;-84
2023/11/01 04:49:38;;;;;;;20.83;6.03;;;12.50;99.90;;;;;;5072653;28;20432;-85
2023/11/01 04:52:06;;;;;;;13.87;5.37;;;12.50;99.90;;;;;;5071806;28;20811;-85
2023/11/01 04:54:35;;;;;;;16.03;4.87;;;12.60;99.90;;;;;;5073604;28;20864;-85
2023/11/01 04:57:01;;;;;;;12.33;4.90;;;12.60;99.90;;;;;;5072992;28;20953;-85
2023/11/01 04:59:28;;;;;;;20.17;4.63;;;12.60;99.90;;;;;;5073069;28;20507;-84
2023/11/01 05:01:53;;;;;;;16.70;4.30;;;12.60;99.90;;;;;;5071569;28;20546;-84
2023/11/01 05:04:19;;;;;;;16.83;4.10;;;12.60;99.90;;;;;;5072252;28;20439;-84
2023/11/01 05:06:44;;;;;;;13.43;4.70;;;12.60;99.90;;;;;;5073841;28;20202;-85
2023/11/01 05:09:12;;;;;;;12.00;4.53;;;12.60;99.90;;;;;;5074758;28;20796;-84
2023/11/01 05:11:38;;;;;;;14.30;4.80;;;12.60;99.90;;;;;;5056948;28;20643;-85
2023/11/01 05:14:03;;;;;;;22.97;4.80;;;12.60;99.90;;;;;;5057212;28;20467;-85
2023/11/01 05:16:29;;;;;;;9.20;4.33;;;12.60;99.90;;;;;;5076320;28;20209;-85
2023/11/01 05:18:55;;;;;;;14.90;3.93;;;12.60;99.90;;;;;;5074660;28;20173;-85
2023/11/01 05:21:20;;;;;;;15.50;4.90;;;12.60;99.90;;;;;;5078063;28;22086;-84
2023/11/01 05:23:46;;;;;;;23.77;4.10;;;12.60;99.80;;;;;;5084632;28;20311;-84
2023/11/01 05:26:16;;;;;;;22.20;4.23;;;12.60;97.20;;;;;;5065595;28;20185;-85
2023/11/01 05:28:42;;;;;;;16.77;3.40;;;12.60;97.30;;;;;;5080739;28;20470;-85
2023/11/01 05:31:10;;;;;;;15.50;3.93;;;12.60;95.30;;;;;;5055533;28;20436;-85
2023/11/01 05:33:36;;;;;;;10.53;3.50;;;12.60;93.60;;;;;;5070017;28;20438;-84
2023/11/01 05:36:06;;;;;;;15.50;4.40;;;12.60;91.40;;;;;;5076269;28;21011;-85
2023/11/01 05:38:35;;;;;;;18.30;4.07;;;12.50;89.80;;;;;;5076315;28;20196;-85
2023/11/01 05:41:01;;;;;;;15.77;4.40;;;12.50;85.50;;;;;;5076006;28;20480;-85
2023/11/01 05:43:26;;;;;;;14.20;3.50;;;12.50;84.60;;;;;;5075409;28;20892;-84
2023/11/01 05:45:52;;;;;;;12.90;3.73;;;12.50;84.40;;;;;;5075287;28;20177;-84
2023/11/01 05:48:18;;;;;;;18.03;4.77;;;12.50;81.40;;;;;;5056903;28;20216;-84
2023/11/01 05:50:44;;;;;;;19.43;3.83;;;12.50;78.20;;;;;;5073086;28;20677;-84
2023/11/01 05:53:10;;;;;;;15.40;3.73;;;12.50;75.90;;;;;;5056082;28;20815;-85
2023/11/01 05:55:37;;;;;;;18.93;4.50;;;12.50;73.10;;;;;;5074426;28;20477;-85
2023/11/01 05:58:11;;;;;;;22.67;5.27;;;12.50;71.70;;;;;;5074063;28;20451;-84
2023/11/01 06:00:37;;;;;;;20.87;5.33;;;12.50;68.90;;;;;;5074000;28;20530;-84
2023/11/01 06:03:06;;;;;;;16.00;5.53;;;12.50;62.70;;;;;;5075365;28;20467;-84
2023/11/01 06:05:34;;;;;;;14.53;5.47;;;12.50;61.90;;;;;;5044535;28;20447;-84
2023/11/01 06:07:59;;;;;;;19.87;4.90;;;12.50;58.90;;;;;;5071223;28;20451;-84
2023/11/01 06:10:25;;;;;;;10.37;4.30;;;12.50;56.20;;;;;;5070548;28;20773;-84
2023/11/01 06:12:50;;;;;;;11.60;3.50;;;12.50;53.90;;;;;;5073872;28;20200;-84
2023/11/01 06:15:16;;;;;;;19.13;4.40;;;12.50;51.90;;;;;;5074973;28;20181;-83
2023/11/01 06:17:41;;;;;;;13.60;3.60;;;12.50;49.40;;;;;;5061927;28;20208;-84
2023/11/01 06:20:07;;;;;;;9.10;3.33;;;12.50;46.70;;;;;;5058264;28;20665;-84
2023/11/01 06:22:35;;;;;;;14.23;3.53;;;12.50;43.50;;;;;;5075147;28;20258;-84
2023/11/01 06:25:01;;;;;;;14.50;3.00;;;12.60;40.00;;;;;;5072746;28;20422;-84
2023/11/01 06:27:28;;;;;;;14.00;3.20;;;12.60;35.70;;;;;;5053582;28;20455;-84
2023/11/01 06:29:53;;;;;;;11.77;3.70;;;12.60;32.10;;;;;;5075168;28;20411;-84
2023/11/01 06:32:19;;;;;;;12.23;3.10;;;12.60;28.00;;;;;;5072924;28;20434;-84
2023/11/01 06:34:48;;;;;;;13.43;2.77;;;12.60;26.30;;;;;;5074325;28;20173;-84
2023/11/01 06:37:13;;;;;;;12.47;3.13;;;12.70;21.50;;;;;;5074598;28;20237;-84
2023/11/01 06:39:39;;;;;;;13.53;3.00;;;12.70;19.80;;;;;;5056877;28;20439;-84
2023/11/01 06:42:04;;;;;;;12.07;3.27;;;12.80;18.40;;;;;;5055354;28;20197;-84
2023/11/01 06:44:35;;;;;;;9.27;2.40;;;12.80;16.10;;;;;;5072865;28;20181;-84
2023/11/01 06:47:00;;;;;;;7.83;2.63;;;12.80;12.70;;;;;;5055577;28;20194;-84
2023/11/01 06:49:26;;;;;;;9.00;3.57;;;12.90;9.80;;;;;;5075973;28;20449;-84
2023/11/01 06:51:51;;;;;;;12.90;3.33;;;12.90;7.20;;;;;;5074365;28;20246;-84
2023/11/01 06:54:17;;;;;;;9.17;2.80;;;12.90;2.00;;;;;;5059001;28;20701;-83
2023/11/01 06:56:44;;;;;;;9.50;3.87;;;13.00;1.00;;;;;;5074342;28;20193;-84
2023/11/01 06:59:10;;;;;;;13.93;3.17;;;13.00;1.00;;;;;;5076334;28;20216;-84
2023/11/01 07:01:36;;;;;;;17.93;3.33;;;13.10;1.00;;;;;;5075596;28;20460;-84
2023/11/01 07:04:01;;;;;;;12.10;3.17;;;13.10;1.00;;;;;;5073615;28;20440;-84
2023/11/01 07:06:27;;;;;;;10.63;2.90;;;13.30;1.00;;;;;;5075719;28;20444;-84
2023/11/01 07:08:52;;;;;;;10.43;2.83;;;13.30;1.00;;;;;;5082424;28;20185;-84
2023/11/01 07:11:18;;;;;;;13.23;3.67;;;13.40;1.00;;;;;;5058889;28;20216;-84
2023/11/01 07:13:44;;;;;;;16.00;3.07;;;13.50;1.00;;;;;;5080377;28;20646;-84
2023/11/01 07:16:10;;;;;;;12.60;2.50;;;13.60;1.00;;;;;;5077416;28;20431;-83
2023/11/01 07:18:38;;;;;;;6.17;3.03;;;13.60;1.00;;;;;;5076927;28;20205;-83
2023/11/01 07:21:05;;;;;;;17.13;4.27;;;13.70;1.00;;;;;;5073933;28;20203;-83
2023/11/01 07:23:31;;;;;;;18.07;2.97;;;13.80;1.00;;;;;;5073731;28;20424;-83
2023/11/01 07:25:56;;;;;;;10.80;3.10;;;13.90;1.00;;;;;;5072221;28;20430;-84
2023/11/01 07:28:22;;;;;;;13.40;3.57;;;14.00;1.00;;;;;;5053597;28;20265;-83
2023/11/01 07:30:48;;;;;;;10.70;3.03;;;14.10;1.00;;;;;;5075288;28;20227;-83
2023/11/01 07:33:14;;;;;;;10.50;4.00;;;14.10;1.00;;;;;;5076172;28;20182;-84
2023/11/01 07:35:40;;;;;;;9.80;2.90;;;14.20;1.00;;;;;;5074216;28;20185;-83
2023/11/01 07:38:05;;;;;;;13.13;4.03;;;14.20;1.00;;;;;;5071541;28;20516;-83
2023/11/01 07:40:31;;;;;;;15.00;2.53;;;14.40;1.00;;;;;;5076643;28;20635;-84
2023/11/01 07:42:56;;;;;;;13.50;2.77;;;14.50;1.00;;;;;;5050657;28;20208;-83
2023/11/01 07:45:22;;;;;;;5.30;2.43;;;14.70;1.00;;;;;;5076537;28;20217;-84
2023/11/01 07:47:47;;;;;;;6.87;2.40;;;14.80;99.90;;;;;;5058253;28;20611;-83
2023/11/01 07:50:13;;;;;;;9.50;3.13;;;15.00;99.90;;;;;;5075220;28;20267;-83
2023/11/01 07:52:39;;;;;;;8.50;2.60;;;15.20;99.90;;;;;;5059418;28;20211;-83
2023/11/01 07:55:05;;;;;;;7.57;2.93;;;15.30;1.00;;;;;;5077747;28;20622;-84
2023/11/01 07:57:32;;;;;;;5.50;2.30;;;15.40;1.00;;;;;;5074669;28;20468;-83
2023/11/01 07:59:57;;;;;;;16.90;3.07;;;15.50;99.90;;;;;;5057801;28;20436;-83
2023/11/01 08:02:23;;;;;;;7.50;1.90;;;15.50;99.90;;;;;;5077549;28;20475;-83
2023/11/01 08:04:48;;;;;;;6.20;1.97;;;15.50;99.90;;;;;;5069266;28;20652;-84
2023/11/01 08:07:14;;;;;;;8.43;1.93;;;15.40;99.90;;;;;;5079096;28;20221;-83
2023/11/01 08:09:40;;;;;;;8.97;2.30;;;15.40;99.90;;;;;;5078535;28;20185;-83
2023/11/01 08:12:06;;;;;;;6.33;2.00;;;15.40;99.90;;;;;;5052398;28;20193;-83
2023/11/01 08:14:32;;;;;;;9.87;2.17;;;15.40;99.90;;;;;;5078730;28;20447;-83
2023/11/01 08:16:57;;;;;;;5.37;2.03;;;15.30;1.00;;;;;;5078689;28;20804;-83
2023/11/01 08:19:23;;;;;;;9.80;2.43;;;15.30;99.90;;;;;;5058427;28;20172;-81
2023/11/01 08:21:48;;;;;;;8.53;2.43;;;15.30;99.90;;;;;;5080491;28;20265;-83
2023/11/01 08:24:14;;;;;;;8.03;1.57;;;15.40;1.00;;;;;;5080396;28;20185;-83
2023/11/01 08:26:39;;;;;;;4.50;1.83;;;15.60;99.90;;;;;;5081713;28;20211;-83
2023/11/01 08:29:05;;;;;;;7.03;2.10;;;15.70;1.00;;;;;;5080999;28;20185;-82
2023/11/01 08:31:30;;;;;;;6.90;2.53;;;16.00;1.00;;;;;;5079610;28;20192;-82
2023/11/01 08:33:57;;;;;;;6.23;2.20;;;16.20;99.90;;;;;;5083706;28;20189;-82
2023/11/01 08:36:22;;;;;;;4.07;1.70;;;16.50;1.00;;;;;;5084767;28;20230;-83
2023/11/01 08:38:48;;;;;;;6.27;1.70;;;16.80;99.90;;;;;;5074691;23;20489;-84
2023/11/01 08:41:13;;;;;;;5.93;1.50;;;16.90;1.00;;;;;;5034116;28;20205;-82
2023/11/01 08:43:40;;;;;;;5.30;1.70;;;16.90;99.90;;;;;;5044528;28;20644;-81
2023/11/01 08:46:06;;;;;;;9.20;2.80;;;16.80;99.90;;;;;;5043983;28;20193;-83
2023/11/01 08:48:32;;;;;;;6.50;2.20;;;16.60;99.90;;;;;;5046977;28;20988;-81
2023/11/01 08:50:57;;;;;;;7.20;1.90;;;16.40;99.90;;;;;;5053431;28;20307;-81
2023/11/01 08:53:23;;;;;;;6.20;2.10;;;16.20;1.00;;;;;;5045138;28;20436;-84
2023/11/01 08:55:48;;;;;;;6.03;1.50;;;16.00;99.90;;;;;;5051325;28;20235;-83
2023/11/01 08:58:14;;;;;;;6.43;2.17;;;15.90;99.90;;;;;;5053662;28;20892;-85
2023/11/01 09:00:39;;;;;;;4.70;2.27;;;15.80;1.00;;;;;;5052878;28;20190;-85
2023/11/01 09:03:06;;;;;;;6.20;1.70;;;15.70;71.10;;;;;;5053478;28;20202;-84
2023/11/01 09:05:31;;;;;;;4.80;1.53;;;15.60;60.90;;;;;;5042594;28;20179;-83
2023/11/01 09:07:57;;;;;;;4.93;1.60;;;15.50;99.90;;;;;;5056355;28;20878;-84
2023/11/01 09:10:22;;;;;;;5.27;1.60;;;15.50;99.90;;;;;;5055939;28;20186;-84
2023/11/01 09:12:48;;;;;;;7.37;1.93;;;15.40;1.00;;;;;;5056527;28;20221;-84
2023/11/01 09:15:14;;;;;;;11.87;1.83;;;15.40;99.90;;;;;;5041213;28;20193;-85
2023/11/01 09:17:39;;;;;;;5.23;1.70;;;15.30;99.90;;;;;;5056178;28;20217;-84
2023/11/01 09:20:06;;;;;;;3.73;1.57;;;15.30;1.00;;;;;;5047444;28;20187;-85
2023/11/01 09:22:32;;;;;;;4.33;1.97;;;15.30;36.10;;;;;;5041295;28;20194;-86
2023/11/01 09:24:58;;;;;;;5.70;1.80;;;15.30;99.90;;;;;;5031256;28;20440;-82
2023/11/01 09:27:23;;;;;;;8.73;1.93;;;15.40;1.00;;;;;;5052421;28;20447;-85
2023/11/01 09:29:49;;;;;;;4.13;1.93;;;15.50;1.00;;;;;;5058133;28;20182;-84
2023/11/01 09:32:14;;;;;;;7.63;1.50;;;15.70;1.00;;;;;;5051797;28;20196;-85
2023/11/01 09:34:41;;;;;;;4.80;1.70;;;16.30;99.90;;;;;;5057799;28;20316;-84
2023/11/01 09:37:07;;;;;;;5.90;1.70;;;16.90;1.00;;;;;;5057311;28;20190;-85
2023/11/01 09:39:33;;;;;;;3.57;1.37;;;17.40;71.50;;;;;;5058362;28;20477;-86
2023/11/01 09:42:02;;;;;;;6.13;2.80;;;17.90;99.90;;;;;;5038485;28;20459;-83
2023/11/01 09:44:31;;;;;;;6.33;2.20;;;18.80;99.90;;;;;;5037881;28;20183;-83
2023/11/01 09:46:58;;;;;;;3.10;1.60;;;19.30;1.00;;;;;;5053066;28;20428;-84
2023/11/01 09:49:24;;;;;;;2.67;1.30;;;19.20;1.00;;;;;;5061095;28;20459;-85
2023/11/01 09:51:49;;;;;;;8.23;1.73;;;18.90;1.00;;;;;;5049246;28;20532;-83
2023/11/01 09:54:15;;;;;;;16.47;1.77;;;18.50;1.00;;;;;;5039192;28;20501;-83
2023/11/01 09:56:45;;;;;;;3.77;1.63;;;18.10;1.00;;;;;;5031329;28;20269;-83
2023/11/01 09:59:12;;;;;;;3.43;2.03;;;18.00;1.00;;;;;;5055947;28;20202;-82
2023/11/01 10:01:38;;;;;;;10.13;1.83;;;17.80;1.00;;;;;;5049601;28;20456;-82
2023/11/01 10:04:05;;;;;;;5.30;1.80;;;17.80;1.00;;;;;;5032670;28;20441;-83
2023/11/01 10:06:34;;;;;;;6.80;1.70;;;17.70;6.60;;;;;;5055217;28;20448;-80
2023/11/01 10:08:59;;;;;;;7.83;1.80;;;17.60;93.10;;;;;;5039409;28;20475;-83
2023/11/01 10:11:25;;;;;;;5.60;1.90;;;17.40;99.90;;;;;;5050349;28;20448;-84
2023/11/01 10:13:51;;;;;;;2.90;2.00;;;17.30;99.90;;;;;;5054732;28;20201;-83
2023/11/01 10:16:17;;;;;;;5.30;1.67;;;17.30;99.90;;;;;;5049709;28;20487;-82
2023/11/01 10:18:43;;;;;;;3.00;1.40;;;17.30;99.90;;;;;;5049905;28;20691;-83
2023/11/01 10:21:09;;;;;;;5.40;1.57;;;17.40;99.90;;;;;;5049586;28;20208;-82
2023/11/01 10:23:35;;;;;;;5.77;1.73;;;17.40;99.90;;;;;;5052816;28;20506;-81
2023/11/01 10:26:01;;;;;;;5.63;1.47;;;17.60;99.90;;;;;;5051353;28;20437;-83
2023/11/01 10:28:27;;;;;;;5.10;1.60;;;17.70;77.10;;;;;;5054113;28;20202;-83
2023/11/01 10:30:53;;;;;;;8.50;1.40;;;17.90;1.00;;;;;;5055486;28;20459;-83
2023/11/01 10:33:22;;;;;;;3.43;1.37;;;18.00;1.00;;;;;;5055772;28;20824;-82
2023/11/01 10:36:00;;;;;;;4.13;1.37;;;18.10;1.00;;;;;;5052900;28;20459;-83
2023/11/01 10:38:28;;;;;;;7.07;2.00;;;18.40;1.00;;;;;;5055240;28;20483;-84
2023/11/01 10:40:57;;;;;;;5.80;2.50;;;18.70;1.00;;;;;;5055577;28;20463;-83
2023/11/01 10:43:25;;;;;;;6.70;1.20;;;18.90;1.00;;;;;;5054700;28;20471;-82
2023/11/01 10:45:51;;;;;;;8.27;2.00;;;18.80;1.00;;;;;;5037331;28;21468;-82
2023/11/01 10:48:17;;;;;;;6.80;1.73;;;18.60;1.00;;;;;;5052508;28;20520;-83
2023/11/01 10:50:46;;;;;;;7.83;2.27;;;18.30;1.00;;;;;;5047395;28;20186;-83
2023/11/01 10:53:12;;;;;;;6.60;2.30;;;18.00;1.00;;;;;;5057300;28;20447;-83
2023/11/01 10:55:40;;;;;;;10.63;2.10;;;17.80;1.00;;;;;;5054419;28;20440;-83
2023/11/01 10:58:06;;;;;;;5.47;1.77;;;17.70;1.00;;;;;;5054313;28;20448;-82
2023/11/01 11:00:38;;;;;;;7.07;1.77;;;17.70;1.00;;;;;;5034443;28;20471;-83
2023/11/01 11:03:18;;;;;;;7.33;2.30;;;18.00;1.00;;;;;;5049465;28;20464;-82
2023/11/01 11:05:44;;;;;;;8.70;2.07;;;18.30;1.00;;;;;;5051772;28;20941;-83
2023/11/01 11:08:10;;;;;;;6.23;1.80;;;18.50;1.00;;;;;;5031040;28;21007;-83
2023/11/01 11:10:39;;;;;;;15.77;2.60;;;18.60;1.00;;;;;;5045249;28;20949;-81
2023/11/01 11:13:16;;;;;;;10.27;3.17;;;18.80;1.00;;;;;;5036188;28;20436;-82
2023/11/01 11:15:51;;;;;;;7.47;3.10;;;19.00;1.00;;;;;;5049144;28;20437;-83
2023/11/01 11:18:24;;;;;;;8.50;2.70;;;19.10;1.00;;;;;;5051855;28;20455;-83
2023/11/01 11:20:51;;;;;;;4.83;2.10;;;19.20;1.00;;;;;;5051182;28;20523;-82
2023/11/01 11:23:17;;;;;;;11.67;2.17;;;19.20;1.00;;;;;;5052090;28;20512;-81
2023/11/01 11:25:50;;;;;;;11.13;2.77;;;19.10;1.00;;;;;;5027520;28;20425;-81
2023/11/01 11:28:18;;;;;;;7.13;2.47;;;19.00;1.00;;;;;;5053386;28;20547;-84
2023/11/01 11:30:44;;;;;;;8.13;3.67;;;18.90;1.00;;;;;;5049742;28;20467;-84
2023/11/01 11:33:13;;;;;;;8.00;2.90;;;18.90;1.00;;;;;;5053784;28;20510;-83
2023/11/01 11:35:39;;;;;;;4.83;2.57;;;18.70;1.00;;;;;;5052004;28;20663;-80
2023/11/01 11:38:27;;;;;;;7.97;2.20;;;18.70;1.00;;;;;;5045368;28;20529;-82
2023/11/01 11:41:11;;;;;;;11.97;2.50;;;18.50;1.00;;;;;;5054109;28;20189;-82
2023/11/01 11:44:01;;;;;;;7.27;3.10;;;18.20;1.00;;;;;;5052419;28;21116;-83
2023/11/01 11:46:31;;;;;;;9.53;4.70;;;18.20;1.00;;;;;;5047378;28;20437;-81
2023/11/01 11:48:59;;;;;;;6.40;2.60;;;18.10;1.00;;;;;;5052783;28;20458;-82
2023/11/01 11:51:24;;;;;;;6.23;3.00;;;17.90;1.00;;;;;;5036557;28;20450;-83
2023/11/01 11:53:50;;;;;;;8.60;1.87;;;17.80;1.00;;;;;;5050402;28;20429;-83
2023/11/01 11:56:19;;;;;;;5.97;2.10;;;17.70;1.00;;;;;;5046705;28;20183;-84
2023/11/01 11:58:45;;;;;;;14.40;7.80;;;17.70;1.00;;;;;;5053822;28;20695;-83
2023/11/01 12:01:26;;;;;;;7.40;2.10;;;17.70;1.00;;;;;;5042325;28;20437;-83
2023/11/01 12:03:55;;;;;;;6.00;2.80;;;17.50;1.00;;;;;;5053904;28;20233;-83
2023/11/01 12:06:23;;;;;;;5.40;2.00;;;17.50;1.00;;;;;;5048066;28;20437;-81
2023/11/01 12:08:50;;;;;;;6.00;2.37;;;17.50;1.00;;;;;;5051498;28;20480;-82
2023/11/01 12:11:15;;;;;;;5.83;2.67;;;17.70;1.00;;;;;;5054789;28;20425;-83
2023/11/01 12:13:47;;;;;;;4.70;2.03;;;17.80;1.00;;;;;;5057249;28;20436;-82
2023/11/01 12:16:29;;;;;;;5.87;1.90;;;17.80;1.00;;;;;;5053524;28;20186;-83
2023/11/01 12:19:21;;;;;;;9.10;2.77;;;17.80;1.00;;;;;;5051908;28;20564;-83
2023/11/01 12:21:50;;;;;;;4.47;2.33;;;17.90;1.00;;;;;;5054562;28;20980;-83
2023/11/01 12:24:19;;;;;;;7.43;2.90;;;17.80;1.00;;;;;;5046695;28;20439;-82
2023/11/01 12:27:03;;;;;;;9.03;2.50;;;17.90;1.00;;;;;;5053970;28;20427;-82
2023/11/01 12:29:41;;;;;;;8.10;2.60;;;17.80;1.00;;;;;;5048088;28;20451;-83
2023/11/01 12:32:18;;;;;;;6.03;2.77;;;17.70;1.00;;;;;;5054236;28;20475;-82
2023/11/01 12:34:49;;;;;;;8.13;2.27;;;17.60;1.00;;;;;;5052698;28;20486;-82
2023/11/01 12:37:20;;;;;;;10.00;2.37;;;17.60;1.00;;;;;;5053271;28;20471;-82
2023/11/01 12:40:10;;;;;;;7.80;1.90;;;17.70;1.00;;;;;;5054477;28;20443;-81
2023/11/01 12:42:49;;;;;;;7.70;2.23;;;17.70;1.00;;;;;;5053571;28;20559;-81
2023/11/01 12:45:17;;;;;;;5.10;1.90;;;17.60;1.00;;;;;;5035837;28;20439;-83
2023/11/01 12:47:51;;;;;;;4.90;1.53;;;17.50;1.00;;;;;;5055928;28;20892;-82